sensor_id;sensor_type;location;lat;lon;timestamp;pressure;altitude;pressure_sealevel;temperature;humidity
61014;BME280;46899;47.542;19.082;2023-04-28T00:02:03;101002.09;;;4.20;96.03
61014;BME280;46899;47.542;19.082;2023-04-28T00:05:06;101004.69;;;4.20;95.64
61014;BME280;46899;47.542;19.082;2023-04-28T00:08:09;100999.53;;;4.19;97.16
61014;BME280;46899;47.542;19.082;2023-04-28T00:11:12;101002.09;;;4.19;97.67
61014;BME280;46899;47.542;19.082;2023-04-28T00:14:14;101000.38;;;4.21;97.33
61014;BME280;46899;47.542;19.082;2023-04-28T00:17:17;101003.81;;;4.17;97.38
61014;BME280;46899;47.542;19.082;2023-04-28T00:20:20;101003.81;;;4.09;97.46
61014;BME280;46899;47.542;19.082;2023-04-28T00:23:22;101006.37;;;4.04;97.88
61014;BME280;46899;47.542;19.082;2023-04-28T00:26:25;101006.34;;;4.07;98.03
61014;BME280;46899;47.542;19.082;2023-04-28T00:29:28;100998.63;;;4.01;98.52
61014;BME280;46899;47.542;19.082;2023-04-28T00:32:33;101002.94;;;3.99;99.79
61014;BME280;46899;47.542;19.082;2023-04-28T00:35:36;101002.06;;;3.97;100.00
61014;BME280;46899;47.542;19.082;2023-04-28T00:38:39;100999.53;;;4.09;100.00
61014;BME280;46899;47.542;19.082;2023-04-28T00:41:41;101003.78;;;4.07;99.97
61014;BME280;46899;47.542;19.082;2023-04-28T00:44:44;100996.91;;;4.00;99.58
61014;BME280;46899;47.542;19.082;2023-04-28T00:47:46;101007.19;;;3.94;100.00
61014;BME280;46899;47.542;19.082;2023-04-28T00:50:49;101008.09;;;4.04;100.00
61014;BME280;46899;47.542;19.082;2023-04-28T00:53:51;101000.34;;;4.05;100.00
61014;BME280;46899;47.542;19.082;2023-04-28T00:56:55;100999.47;;;4.00;100.00
61014;BME280;46899;47.542;19.082;2023-04-28T00:59:58;101008.06;;;3.92;100.00
61014;BME280;46899;47.542;19.082;2023-04-28T01:03:00;101003.75;;;3.88;100.00
61014;BME280;46899;47.542;19.082;2023-04-28T01:06:05;101009.72;;;3.79;100.00
61014;BME280;46899;47.542;19.082;2023-04-28T01:09:08;101016.59;;;3.74;100.00
61014;BME280;46899;47.542;19.082;2023-04-28T01:12:10;101016.56;;;3.68;100.00
61014;BME280;46899;47.542;19.082;2023-04-28T01:15:30;101020.84;;;3.65;100.00
61014;BME280;46899;47.542;19.082;2023-04-28T01:18:34;101028.53;;;3.57;100.00
61014;BME280;46899;47.542;19.082;2023-04-28T01:21:37;101011.38;;;3.61;100.00
61014;BME280;46899;47.542;19.082;2023-04-28T01:24:44;101020.84;;;3.66;100.00
61014;BME280;46899;47.542;19.082;2023-04-28T01:27:47;101016.50;;;3.56;100.00
61014;BME280;46899;47.542;19.082;2023-04-28T01:30:50;101025.94;;;3.48;100.00
61014;BME280;46899;47.542;19.082;2023-04-28T01:33:52;101018.16;;;3.42;100.00
61014;BME280;46899;47.542;19.082;2023-04-28T01:36:55;101016.47;;;3.42;100.00
61014;BME280;46899;47.542;19.082;2023-04-28T01:39:58;101019.00;;;3.38;100.00
61014;BME280;46899;47.542;19.082;2023-04-28T01:43:00;101009.56;;;3.37;100.00
61014;BME280;46899;47.542;19.082;2023-04-28T01:46:04;101015.56;;;3.33;100.00
61014;BME280;46899;47.542;19.082;2023-04-28T01:49:07;101010.37;;;3.30;100.00
61014;BME280;46899;47.542;19.082;2023-04-28T01:52:10;101009.50;;;3.23;100.00
61014;BME280;46899;47.542;19.082;2023-04-28T01:55:13;101008.62;;;3.17;100.00
61014;BME280;46899;47.542;19.082;2023-04-28T01:58:15;101005.19;;;3.15;100.00
61014;BME280;46899;47.542;19.082;2023-04-28T02:01:18;101013.72;;;3.14;100.00
61014;BME280;46899;47.542;19.082;2023-04-28T02:04:22;101016.31;;;3.14;100.00
61014;BME280;46899;47.542;19.082;2023-04-28T02:07:24;101019.72;;;3.10;100.00
61014;BME280;46899;47.542;19.082;2023-04-28T02:10:27;101023.97;;;3.05;100.00
61014;BME280;46899;47.542;19.082;2023-04-28T02:13:29;101030.81;;;3.01;100.00
61014;BME280;46899;47.542;19.082;2023-04-28T02:16:32;101032.50;;;3.01;100.00
61014;BME280;46899;47.542;19.082;2023-04-28T02:19:35;101028.25;;;3.01;100.00
61014;BME280;46899;47.542;19.082;2023-04-28T02:22:40;101028.25;;;3.01;100.00
61014;BME280;46899;47.542;19.082;2023-04-28T02:25:42;101023.97;;;3.05;100.00
61014;BME280;46899;47.542;19.082;2023-04-28T02:28:46;101020.56;;;3.06;100.00
61014;BME280;46899;47.542;19.082;2023-04-28T02:31:50;101022.22;;;3.01;100.00
61014;BME280;46899;47.542;19.082;2023-04-28T02:34:53;101030.81;;;3.03;100.00
61014;BME280;46899;47.542;19.082;2023-04-28T02:37:57;101024.81;;;3.01;100.00
61014;BME280;46899;47.542;19.082;2023-04-28T02:41:00;101027.34;;;2.99;100.00
61014;BME280;46899;47.542;19.082;2023-04-28T02:44:03;101030.75;;;2.95;100.00
61014;BME280;46899;47.542;19.082;2023-04-28T02:47:05;101031.59;;;2.90;100.00
61014;BME280;46899;47.542;19.082;2023-04-28T02:50:11;101033.25;;;2.88;100.00
61014;BME280;46899;47.542;19.082;2023-04-28T02:53:13;101034.97;;;2.83;100.00
61014;BME280;46899;47.542;19.082;2023-04-28T02:56:16;101034.97;;;2.84;100.00
61014;BME280;46899;47.542;19.082;2023-04-28T02:59:19;101037.47;;;2.76;100.00
61014;BME280;46899;47.542;19.082;2023-04-28T03:02:22;101028.97;;;2.84;100.00
61014;BME280;46899;47.542;19.082;2023-04-28T03:05:25;101029.81;;;2.80;100.00
61014;BME280;46899;47.542;19.082;2023-04-28T03:08:28;101034.91;;;2.76;100.00
61014;BME280;46899;47.542;19.082;2023-04-28T03:11:31;101034.03;;;2.73;100.00
61014;BME280;46899;47.542;19.082;2023-04-28T03:14:33;101034.00;;;2.68;100.00
61014;BME280;46899;47.542;19.082;2023-04-28T03:17:36;101039.16;;;2.68;100.00
61014;BME280;46899;47.542;19.082;2023-04-28T03:20:43;101039.97;;;2.67;100.00
61014;BME280;46899;47.542;19.082;2023-04-28T03:23:45;101038.25;;;2.65;100.00
61014;BME280;46899;47.542;19.082;2023-04-28T03:26:48;101045.06;;;2.63;100.00
61014;BME280;46899;47.542;19.082;2023-04-28T03:29:51;101053.63;;;2.60;100.00
61014;BME280;46899;47.542;19.082;2023-04-28T03:32:53;101045.06;;;2.63;100.00
61014;BME280;46899;47.542;19.082;2023-04-28T03:35:56;101048.59;;;2.74;100.00
61014;BME280;46899;47.542;19.082;2023-04-28T03:38:59;101052.03;;;2.73;100.00
61014;BME280;46899;47.542;19.082;2023-04-28T03:42:02;101046.84;;;2.71;100.00
61014;BME280;46899;47.542;19.082;2023-04-28T03:45:07;101046.87;;;2.74;100.00
61014;BME280;46899;47.542;19.082;2023-04-28T03:48:10;101046.06;;;2.75;100.00
61014;BME280;46899;47.542;19.082;2023-04-28T03:51:12;101049.44;;;2.74;100.00
61014;BME280;46899;47.542;19.082;2023-04-28T03:54:15;101045.19;;;2.78;100.00
61014;BME280;46899;47.542;19.082;2023-04-28T03:57:18;101051.25;;;2.85;100.00
61014;BME280;46899;47.542;19.082;2023-04-28T04:00:21;101053.84;;;2.92;100.00
61014;BME280;46899;47.542;19.082;2023-04-28T04:03:25;101060.78;;;3.02;100.00
61014;BME280;46899;47.542;19.082;2023-04-28T04:06:29;101065.97;;;3.10;100.00
61014;BME280;46899;47.542;19.082;2023-04-28T04:09:32;101068.59;;;3.16;100.00
61014;BME280;46899;47.542;19.082;2023-04-28T04:12:35;101067.78;;;3.23;100.00
61014;BME280;46899;47.542;19.082;2023-04-28T04:15:38;101067.84;;;3.32;100.00
61014;BME280;46899;47.542;19.082;2023-04-28T04:18:40;101064.47;;;3.42;100.00
61014;BME280;46899;47.542;19.082;2023-04-28T04:21:44;101068.84;;;3.55;100.00
61014;BME280;46899;47.542;19.082;2023-04-28T04:24:46;101065.50;;;3.74;100.00
61014;BME280;46899;47.542;19.082;2023-04-28T04:27:49;101071.53;;;3.87;100.00
61014;BME280;46899;47.542;19.082;2023-04-28T04:30:52;101083.63;;;4.13;100.00
61014;BME280;46899;47.542;19.082;2023-04-28T04:33:54;101079.41;;;4.31;100.00
61014;BME280;46899;47.542;19.082;2023-04-28T04:36:58;101083.69;;;4.45;100.00
61014;BME280;46899;47.542;19.082;2023-04-28T04:40:01;101078.59;;;4.63;100.00
61014;BME280;46899;47.542;19.082;2023-04-28T04:43:05;101074.28;;;4.82;98.22
61014;BME280;46899;47.542;19.082;2023-04-28T04:46:12;101078.56;;;4.95;95.33
61014;BME280;46899;47.542;19.082;2023-04-28T04:49:15;101081.16;;;5.13;93.97
61014;BME280;46899;47.542;19.082;2023-04-28T04:52:19;101079.38;;;5.30;91.07
61014;BME280;46899;47.542;19.082;2023-04-28T04:55:24;101078.50;;;5.42;90.48
61014;BME280;46899;47.542;19.082;2023-04-28T04:58:27;101081.03;;;5.65;89.23
61014;BME280;46899;47.542;19.082;2023-04-28T05:01:31;101082.69;;;5.87;88.27
61014;BME280;46899;47.542;19.082;2023-04-28T05:04:34;101075.66;;;6.16;86.85
61014;BME280;46899;47.542;19.082;2023-04-28T05:07:38;101070.34;;;6.39;85.84
61014;BME280;46899;47.542;19.082;2023-04-28T05:10:40;101080.56;;;6.58;83.27
61014;BME280;46899;47.542;19.082;2023-04-28T05:13:43;101077.81;;;6.82;80.95
61014;BME280;46899;47.542;19.082;2023-04-28T05:16:47;101084.50;;;7.06;79.84
61014;BME280;46899;47.542;19.082;2023-04-28T05:19:49;101085.38;;;7.04;77.12
61014;BME280;46899;47.542;19.082;2023-04-28T05:22:52;101086.75;;;7.38;76.18
61014;BME280;46899;47.542;19.082;2023-04-28T05:25:54;101084.66;;;7.72;74.38
61014;BME280;46899;47.542;19.082;2023-04-28T05:28:58;101092.88;;;8.07;72.16
61014;BME280;46899;47.542;19.082;2023-04-28T05:32:01;101093.41;;;8.33;69.05
61014;BME280;46899;47.542;19.082;2023-04-28T05:35:04;101094.00;;;8.52;67.92
61014;BME280;46899;47.542;19.082;2023-04-28T05:38:07;101091.56;;;8.43;67.87
61014;BME280;46899;47.542;19.082;2023-04-28T05:41:10;101092.62;;;8.84;66.25
61014;BME280;46899;47.542;19.082;2023-04-28T05:44:13;101087.38;;;8.89;65.00
61014;BME280;46899;47.542;19.082;2023-04-28T05:47:16;101089.72;;;9.04;63.62
61014;BME280;46899;47.542;19.082;2023-04-28T05:50:19;101095.13;;;8.92;62.91
61014;BME280;46899;47.542;19.082;2023-04-28T05:53:24;101094.37;;;9.34;62.23
61014;BME280;46899;47.542;19.082;2023-04-28T05:56:26;101090.59;;;9.50;61.19
61014;BME280;46899;47.542;19.082;2023-04-28T05:59:29;101094.81;;;9.99;59.52
61014;BME280;46899;47.542;19.082;2023-04-28T06:02:32;101090.50;;;10.77;55.41
61014;BME280;46899;47.542;19.082;2023-04-28T06:05:37;101093.28;;;11.39;53.36
61014;BME280;46899;47.542;19.082;2023-04-28T06:08:40;101099.75;;;11.89;51.44
61014;BME280;46899;47.542;19.082;2023-04-28T06:11:48;101094.66;;;12.13;50.60
61014;BME280;46899;47.542;19.082;2023-04-28T06:14:50;101096.34;;;11.87;51.30
61014;BME280;46899;47.542;19.082;2023-04-28T06:17:56;101100.03;;;12.38;49.23
61014;BME280;46899;47.542;19.082;2023-04-28T06:21:00;101098.06;;;12.72;48.77
61014;BME280;46899;47.542;19.082;2023-04-28T06:24:03;101102.53;;;13.23;46.38
61014;BME280;46899;47.542;19.082;2023-04-28T06:27:05;101101.13;;;13.63;45.81
61014;BME280;46899;47.542;19.082;2023-04-28T06:30:08;101099.75;;;14.23;44.57
61014;BME280;46899;47.542;19.082;2023-04-28T06:33:10;101096.12;;;14.72;43.34
61014;BME280;46899;47.542;19.082;2023-04-28T06:36:13;101103.06;;;15.15;43.00
61014;BME280;46899;47.542;19.082;2023-04-28T06:39:18;101102.59;;;15.67;42.45
61014;BME280;46899;47.542;19.082;2023-04-28T06:42:21;101100.66;;;16.28;40.63
61014;BME280;46899;47.542;19.082;2023-04-28T06:45:25;101099.22;;;16.60;39.30
61014;BME280;46899;47.542;19.082;2023-04-28T06:48:31;101093.94;;;18.29;36.61
61014;BME280;46899;47.542;19.082;2023-04-28T06:51:33;101099.00;;;18.17;35.91
61014;BME280;46899;47.542;19.082;2023-04-28T06:54:36;101101.66;;;17.84;35.62
61014;BME280;46899;47.542;19.082;2023-04-28T06:57:42;101099.31;;;16.75;37.51
61014;BME280;46899;47.542;19.082;2023-04-28T07:00:45;101098.75;;;16.50;38.18
61014;BME280;46899;47.542;19.082;2023-04-28T07:03:47;101101.44;;;19.13;33.56
61014;BME280;46899;47.542;19.082;2023-04-28T07:06:50;101096.41;;;21.19;29.39
61014;BME280;46899;47.542;19.082;2023-04-28T07:09:53;101083.41;;;24.14;25.51
61014;BME280;46899;47.542;19.082;2023-04-28T07:12:56;101086.16;;;23.91;25.27
61014;BME280;46899;47.542;19.082;2023-04-28T07:15:59;101083.31;;;21.43;29.20
61014;BME280;46899;47.542;19.082;2023-04-28T07:19:02;101074.44;;;18.79;32.47
61014;BME280;46899;47.542;19.082;2023-04-28T07:22:04;101076.34;;;17.82;33.89
61014;BME280;46899;47.542;19.082;2023-04-28T07:25:07;101070.94;;;21.68;28.08
61014;BME280;46899;47.542;19.082;2023-04-28T07:28:10;101073.25;;;22.71;26.57
61014;BME280;46899;47.542;19.082;2023-04-28T07:31:13;101067.19;;;24.39;25.27
61014;BME280;46899;47.542;19.082;2023-04-28T07:34:16;101065.72;;;25.62;23.66
61014;BME280;46899;47.542;19.082;2023-04-28T07:37:19;101071.69;;;24.82;23.38
61014;BME280;46899;47.542;19.082;2023-04-28T07:40:21;101067.53;;;25.41;22.99
61014;BME280;46899;47.542;19.082;2023-04-28T07:43:24;101077.63;;;26.19;22.60
61014;BME280;46899;47.542;19.082;2023-04-28T07:46:27;101067.47;;;25.32;23.59
61014;BME280;46899;47.542;19.082;2023-04-28T07:49:30;101063.72;;;24.17;24.49
61014;BME280;46899;47.542;19.082;2023-04-28T07:52:32;101062.69;;;22.22;27.17
61014;BME280;46899;47.542;19.082;2023-04-28T07:55:35;101059.03;;;21.36;26.94
61014;BME280;46899;47.542;19.082;2023-04-28T07:58:38;101058.06;;;20.18;28.20
61014;BME280;46899;47.542;19.082;2023-04-28T08:01:41;101053.66;;;19.62;28.77
61014;BME280;46899;47.542;19.082;2023-04-28T08:04:44;101039.22;;;19.09;29.94
61014;BME280;46899;47.542;19.082;2023-04-28T08:07:47;101040.94;;;19.54;28.73
61014;BME280;46899;47.542;19.082;2023-04-28T08:10:50;101033.34;;;20.60;28.16
61014;BME280;46899;47.542;19.082;2023-04-28T08:13:53;101032.34;;;20.75;27.04
61014;BME280;46899;47.542;19.082;2023-04-28T08:16:56;101030.75;;;22.23;25.60
61014;BME280;46899;47.542;19.082;2023-04-28T08:19:59;101024.72;;;22.81;24.03
61014;BME280;46899;47.542;19.082;2023-04-28T08:23:01;101025.53;;;23.17;24.27
61014;BME280;46899;47.542;19.082;2023-04-28T08:26:04;101013.13;;;24.71;22.63
61014;BME280;46899;47.542;19.082;2023-04-28T08:29:07;101016.31;;;25.17;21.08
61014;BME280;46899;47.542;19.082;2023-04-28T08:32:10;101008.56;;;26.25;20.17
61014;BME280;46899;47.542;19.082;2023-04-28T08:35:12;101005.03;;;27.11;19.26
61014;BME280;46899;47.542;19.082;2023-04-28T08:38:16;101004.75;;;28.07;18.89
61014;BME280;46899;47.542;19.082;2023-04-28T08:41:19;100998.78;;;28.13;18.24
61014;BME280;46899;47.542;19.082;2023-04-28T08:44:22;100998.03;;;27.00;18.96
61014;BME280;46899;47.542;19.082;2023-04-28T08:47:28;100992.56;;;26.54;18.81
61014;BME280;46899;47.542;19.082;2023-04-28T08:50:34;100987.53;;;26.80;18.42
61014;BME280;46899;47.542;19.082;2023-04-28T08:53:38;100989.19;;;25.53;20.05
61014;BME280;46899;47.542;19.082;2023-04-28T08:57:00;100982.97;;;23.85;21.30
61014;BME280;46899;47.542;19.082;2023-04-28T09:00:04;100979.50;;;21.38;23.12
61014;BME280;46899;47.542;19.082;2023-04-28T09:03:06;100983.56;;;20.39;25.08
61014;BME280;46899;47.542;19.082;2023-04-28T09:06:10;100981.31;;;20.73;25.19
61014;BME280;46899;47.542;19.082;2023-04-28T09:09:26;100982.00;;;20.23;26.01
61014;BME280;46899;47.542;19.082;2023-04-28T09:12:35;100976.59;;;19.69;25.83
61014;BME280;46899;47.542;19.082;2023-04-28T09:15:41;100967.19;;;19.51;26.72
61014;BME280;46899;47.542;19.082;2023-04-28T09:18:56;100970.94;;;19.75;25.87
61014;BME280;46899;47.542;19.082;2023-04-28T09:21:59;100967.47;;;19.61;26.37
61014;BME280;46899;47.542;19.082;2023-04-28T09:25:12;100968.59;;;20.12;25.60
61014;BME280;46899;47.542;19.082;2023-04-28T09:28:21;100978.12;;;19.73;25.89
61014;BME280;46899;47.542;19.082;2023-04-28T09:31:24;100974.84;;;20.11;24.93
61014;BME280;46899;47.542;19.082;2023-04-28T09:34:41;100971.16;;;20.13;25.58
61014;BME280;46899;47.542;19.082;2023-04-28T09:37:44;100967.62;;;19.72;26.29
61014;BME280;46899;47.542;19.082;2023-04-28T09:40:53;100972.06;;;20.26;25.75
61014;BME280;46899;47.542;19.082;2023-04-28T09:44:08;100976.16;;;19.49;26.50
61014;BME280;46899;47.542;19.082;2023-04-28T09:47:19;100954.88;;;19.78;26.19
61014;BME280;46899;47.542;19.082;2023-04-28T09:50:26;100952.28;;;20.46;26.13
61014;BME280;46899;47.542;19.082;2023-04-28T09:53:40;100955.59;;;20.35;25.81
61014;BME280;46899;47.542;19.082;2023-04-28T09:56:43;100945.75;;;20.25;25.54
61014;BME280;46899;47.542;19.082;2023-04-28T09:59:49;100944.28;;;20.60;24.60
61014;BME280;46899;47.542;19.082;2023-04-28T10:02:52;100946.22;;;20.17;24.50
61014;BME280;46899;47.542;19.082;2023-04-28T10:05:56;100936.25;;;19.53;26.39
61014;BME280;46899;47.542;19.082;2023-04-28T10:08:59;100934.28;;;19.71;26.21
61014;BME280;46899;47.542;19.082;2023-04-28T10:12:03;100940.50;;;19.56;26.17
61014;BME280;46899;47.542;19.082;2023-04-28T10:15:06;100937.09;;;20.09;25.77
61014;BME280;46899;47.542;19.082;2023-04-28T10:18:11;100921.13;;;20.24;24.49
61014;BME280;46899;47.542;19.082;2023-04-28T10:21:16;100928.00;;;20.27;25.03
61014;BME280;46899;47.542;19.082;2023-04-28T10:24:21;100914.78;;;19.86;25.63
61014;BME280;46899;47.542;19.082;2023-04-28T10:27:30;100911.28;;;19.31;26.81
61014;BME280;46899;47.542;19.082;2023-04-28T10:30:35;100904.75;;;19.64;26.72
61014;BME280;46899;47.542;19.082;2023-04-28T10:33:39;100892.88;;;19.29;26.77
61014;BME280;46899;47.542;19.082;2023-04-28T10:36:46;100888.94;;;19.22;27.40
61014;BME280;46899;47.542;19.082;2023-04-28T10:43:11;100882.19;;;19.73;26.33
61014;BME280;46899;47.542;19.082;2023-04-28T10:46:14;100878.34;;;19.64;26.10
61014;BME280;46899;47.542;19.082;2023-04-28T10:49:17;100860.37;;;20.10;26.56
61014;BME280;46899;47.542;19.082;2023-04-28T10:55:41;100860.16;;;19.87;26.50
61014;BME280;46899;47.542;19.082;2023-04-28T10:58:50;100861.19;;;20.25;26.56
61014;BME280;46899;47.542;19.082;2023-04-28T11:01:53;100858.88;;;20.06;26.26
61014;BME280;46899;47.542;19.082;2023-04-28T11:05:11;100851.09;;;19.64;27.32
61014;BME280;46899;47.542;19.082;2023-04-28T11:11:21;100835.03;;;20.20;27.51
61014;BME280;46899;47.542;19.082;2023-04-28T11:17:38;100828.50;;;20.26;26.82
61014;BME280;46899;47.542;19.082;2023-04-28T11:20:42;100828.84;;;20.07;27.21
61014;BME280;46899;47.542;19.082;2023-04-28T11:23:45;100830.72;;;20.44;26.37
61014;BME280;46899;47.542;19.082;2023-04-28T11:26:48;100830.34;;;20.76;26.63
61014;BME280;46899;47.542;19.082;2023-04-28T11:29:51;100825.03;;;20.38;26.75
61014;BME280;46899;47.542;19.082;2023-04-28T11:32:53;100818.78;;;20.52;27.25
61014;BME280;46899;47.542;19.082;2023-04-28T11:35:56;100824.94;;;20.39;27.60
61014;BME280;46899;47.542;19.082;2023-04-28T11:38:59;100820.41;;;20.67;27.89
61014;BME280;46899;47.542;19.082;2023-04-28T11:42:04;100817.88;;;20.13;27.38
61014;BME280;46899;47.542;19.082;2023-04-28T11:45:10;100826.38;;;19.65;27.86
61014;BME280;46899;47.542;19.082;2023-04-28T11:48:20;100828.38;;;18.78;29.75
61014;BME280;46899;47.542;19.082;2023-04-28T11:51:30;100827.22;;;18.96;30.10
61014;BME280;46899;47.542;19.082;2023-04-28T11:54:34;100815.47;;;19.02;29.90
61014;BME280;46899;47.542;19.082;2023-04-28T11:57:37;100811.22;;;18.85;30.38
61014;BME280;46899;47.542;19.082;2023-04-28T12:00:39;100818.50;;;19.51;29.91
61014;BME280;46899;47.542;19.082;2023-04-28T12:03:46;100811.50;;;19.64;29.46
61014;BME280;46899;47.542;19.082;2023-04-28T12:06:57;100808.25;;;19.73;29.89
61014;BME280;46899;47.542;19.082;2023-04-28T12:10:12;100799.47;;;19.99;28.17
61014;BME280;46899;47.542;19.082;2023-04-28T12:13:16;100799.41;;;19.87;29.24
61014;BME280;46899;47.542;19.082;2023-04-28T12:16:35;100809.78;;;19.90;29.21
61014;BME280;46899;47.542;19.082;2023-04-28T12:19:43;100797.47;;;18.80;30.47
61014;BME280;46899;47.542;19.082;2023-04-28T12:22:47;100781.81;;;18.91;30.69
61014;BME280;46899;47.542;19.082;2023-04-28T12:25:50;100778.81;;;18.97;30.50
61014;BME280;46899;47.542;19.082;2023-04-28T12:28:53;100783.03;;;19.14;31.34
61014;BME280;46899;47.542;19.082;2023-04-28T12:31:55;100785.94;;;19.38;30.58
61014;BME280;46899;47.542;19.082;2023-04-28T12:34:59;100785.72;;;19.41;30.42
61014;BME280;46899;47.542;19.082;2023-04-28T12:38:01;100775.06;;;18.87;30.94
61014;BME280;46899;47.542;19.082;2023-04-28T12:41:04;100775.41;;;19.09;31.56
61014;BME280;46899;47.542;19.082;2023-04-28T12:44:06;100764.84;;;19.24;30.91
61014;BME280;46899;47.542;19.082;2023-04-28T12:47:09;100755.13;;;19.24;31.57
61014;BME280;46899;47.542;19.082;2023-04-28T12:50:12;100745.34;;;19.53;31.35
61014;BME280;46899;47.542;19.082;2023-04-28T12:53:15;100726.94;;;19.91;30.39
61014;BME280;46899;47.542;19.082;2023-04-28T12:56:18;100722.31;;;19.94;30.80
61014;BME280;46899;47.542;19.082;2023-04-28T12:59:24;100717.28;;;19.64;30.99
61014;BME280;46899;47.542;19.082;2023-04-28T13:02:26;100704.75;;;19.81;30.73
61014;BME280;46899;47.542;19.082;2023-04-28T13:05:30;100700.72;;;19.75;30.91
61014;BME280;46899;47.542;19.082;2023-04-28T13:08:32;100685.59;;;19.52;31.46
61014;BME280;46899;47.542;19.082;2023-04-28T13:11:35;100682.06;;;20.16;29.92
61014;BME280;46899;47.542;19.082;2023-04-28T13:14:38;100684.84;;;20.27;30.49
61014;BME280;46899;47.542;19.082;2023-04-28T13:17:41;100676.66;;;19.92;30.14
61014;BME280;46899;47.542;19.082;2023-04-28T13:20:43;100676.88;;;20.14;30.49
61014;BME280;46899;47.542;19.082;2023-04-28T13:23:46;100681.28;;;19.63;31.08
61014;BME280;46899;47.542;19.082;2023-04-28T13:26:48;100677.00;;;19.22;31.33
61014;BME280;46899;47.542;19.082;2023-04-28T13:29:51;100692.22;;;19.45;31.00
61014;BME280;46899;47.542;19.082;2023-04-28T13:32:53;100697.50;;;19.04;31.43
61014;BME280;46899;47.542;19.082;2023-04-28T13:35:59;100686.94;;;19.04;31.55
61014;BME280;46899;47.542;19.082;2023-04-28T13:39:01;100686.25;;;18.88;31.99
61014;BME280;46899;47.542;19.082;2023-04-28T13:42:04;100683.16;;;19.08;31.90
61014;BME280;46899;47.542;19.082;2023-04-28T13:45:08;100686.56;;;18.69;32.32
61014;BME280;46899;47.542;19.082;2023-04-28T13:48:11;100682.22;;;18.68;33.56
61014;BME280;46899;47.542;19.082;2023-04-28T13:51:14;100671.09;;;18.77;32.70
61014;BME280;46899;47.542;19.082;2023-04-28T13:54:16;100668.00;;;18.71;32.65
61014;BME280;46899;47.542;19.082;2023-04-28T13:57:19;100664.22;;;18.75;32.67
61014;BME280;46899;47.542;19.082;2023-04-28T14:00:22;100649.50;;;18.44;33.05
61014;BME280;46899;47.542;19.082;2023-04-28T14:03:26;100645.72;;;19.03;32.28
61014;BME280;46899;47.542;19.082;2023-04-28T14:06:29;100637.37;;;19.09;31.87
61014;BME280;46899;47.542;19.082;2023-04-28T14:09:34;100633.16;;;19.06;31.54
61014;BME280;46899;47.542;19.082;2023-04-28T14:12:37;100627.88;;;19.06;32.01
61014;BME280;46899;47.542;19.082;2023-04-28T14:15:39;100628.56;;;19.23;32.14
61014;BME280;46899;47.542;19.082;2023-04-28T14:18:59;100629.75;;;18.51;32.73
61014;BME280;46899;47.542;19.082;2023-04-28T14:22:05;100626.16;;;18.52;33.44
61014;BME280;46899;47.542;19.082;2023-04-28T14:25:08;100629.53;;;18.54;33.29
61014;BME280;46899;47.542;19.082;2023-04-28T14:28:11;100627.37;;;18.47;34.30
61014;BME280;46899;47.542;19.082;2023-04-28T14:31:13;100626.87;;;18.68;33.63
61014;BME280;46899;47.542;19.082;2023-04-28T14:34:16;100628.16;;;18.75;33.50
61014;BME280;46899;47.542;19.082;2023-04-28T14:37:19;100618.81;;;18.57;33.39
61014;BME280;46899;47.542;19.082;2023-04-28T14:40:22;100625.31;;;18.52;33.96
61014;BME280;46899;47.542;19.082;2023-04-28T14:43:24;100620.50;;;18.44;34.23
61014;BME280;46899;47.542;19.082;2023-04-28T14:46:27;100612.63;;;18.30;34.82
61014;BME280;46899;47.542;19.082;2023-04-28T14:49:29;100617.69;;;18.33;34.07
61014;BME280;46899;47.542;19.082;2023-04-28T14:52:32;100612.41;;;18.19;34.29
61014;BME280;46899;47.542;19.082;2023-04-28T14:55:35;100611.50;;;18.06;35.10
61014;BME280;46899;47.542;19.082;2023-04-28T14:58:38;100602.19;;;18.00;35.26
61014;BME280;46899;47.542;19.082;2023-04-28T15:01:41;100603.03;;;18.01;35.13
61014;BME280;46899;47.542;19.082;2023-04-28T15:04:45;100587.56;;;17.66;35.59
61014;BME280;46899;47.542;19.082;2023-04-28T15:07:48;100588.34;;;17.68;35.90
61014;BME280;46899;47.542;19.082;2023-04-28T15:10:50;100582.87;;;17.86;35.79
61014;BME280;46899;47.542;19.082;2023-04-28T15:13:53;100587.22;;;17.72;36.17
61014;BME280;46899;47.542;19.082;2023-04-28T15:16:56;100587.78;;;17.77;35.87
61014;BME280;46899;47.542;19.082;2023-04-28T15:19:58;100582.87;;;17.86;36.00
61014;BME280;46899;47.542;19.082;2023-04-28T15:23:01;100575.09;;;17.84;35.91
61014;BME280;46899;47.542;19.082;2023-04-28T15:26:03;100569.66;;;17.87;35.75
61014;BME280;46899;47.542;19.082;2023-04-28T15:29:08;100573.88;;;17.75;36.13
61014;BME280;46899;47.542;19.082;2023-04-28T15:32:10;100577.59;;;17.57;36.47
61014;BME280;46899;47.542;19.082;2023-04-28T15:35:13;100579.09;;;17.47;37.04
61014;BME280;46899;47.542;19.082;2023-04-28T15:38:16;100568.25;;;17.38;37.90
61014;BME280;46899;47.542;19.082;2023-04-28T15:41:19;100563.59;;;17.43;37.47
61014;BME280;46899;47.542;19.082;2023-04-28T15:44:22;100564.59;;;17.40;37.87
61014;BME280;46899;47.542;19.082;2023-04-28T15:47:24;100564.03;;;17.35;37.65
61014;BME280;46899;47.542;19.082;2023-04-28T15:50:27;100556.09;;;17.21;38.23
61014;BME280;46899;47.542;19.082;2023-04-28T15:53:30;100547.78;;;16.99;38.71
61014;BME280;46899;47.542;19.082;2023-04-28T15:56:32;100553.97;;;16.98;38.80
61014;BME280;46899;47.542;19.082;2023-04-28T15:59:35;100535.97;;;17.06;39.01
61014;BME280;46899;47.542;19.082;2023-04-28T16:02:37;100523.97;;;16.86;39.32